Time;durP1;ratioP1;P1;durP2;ratioP2;P2;SDS_P1;SDS_P2;PMS_P1;PMS_P2;Temp;Humidity;BMP_temperature;BMP_pressure;BME280_temperature;BME280_humidity;BME280_pressure;Samples;Min_cycle;Max_cycle;Signal;HPM_P1;HPM_P2
2021/01/17 00:00:29;;;;;;;29.90;20.20;;;-1.60;99.90;;;;;;5041153;28;21147;-75
2021/01/17 00:02:56;;;;;;;31.00;19.97;;;-1.60;99.90;;;;;;5042466;28;20285;-75
2021/01/17 00:05:24;;;;;;;31.37;20.30;;;-1.60;99.90;;;;;;5044037;28;20437;-74
2021/01/17 00:07:50;;;;;;;31.63;18.80;;;-1.60;99.90;;;;;;5043772;28;20506;-75
2021/01/17 00:10:19;;;;;;;31.43;21.27;;;-1.60;99.90;;;;;;5045628;28;20576;-74
2021/01/17 00:12:47;;;;;;;26.70;19.20;;;-1.50;99.90;;;;;;5044922;28;20433;-74
2021/01/17 00:15:13;;;;;;;27.07;18.97;;;-1.50;99.90;;;;;;5045898;28;20422;-74
2021/01/17 00:17:39;;;;;;;29.67;19.77;;;-1.50;99.90;;;;;;5044313;28;20425;-74
2021/01/17 00:20:13;;;;;;;28.70;18.10;;;-1.40;99.90;;;;;;5043604;28;20977;-73
2021/01/17 00:22:38;;;;;;;31.00;19.60;;;-1.40;99.90;;;;;;5040887;28;20428;-75
2021/01/17 00:25:05;;;;;;;27.83;20.60;;;-1.40;99.90;;;;;;5041448;28;20519;-74
2021/01/17 00:27:31;;;;;;;32.50;20.47;;;-1.40;99.90;;;;;;5033448;28;20183;-74
2021/01/17 00:29:56;;;;;;;28.13;21.13;;;-1.50;99.90;;;;;;5045254;28;20499;-76
2021/01/17 00:32:22;;;;;;;32.93;21.60;;;-1.50;99.90;;;;;;5039859;28;20236;-74
2021/01/17 00:34:47;;;;;;;30.30;19.70;;;-1.50;99.90;;;;;;5043618;28;20265;-75
2021/01/17 00:37:15;;;;;;;30.20;18.50;;;-1.50;99.90;;;;;;5044295;28;20198;-75
2021/01/17 00:39:40;;;;;;;29.30;21.00;;;-1.50;99.90;;;;;;5037660;28;20222;-74
2021/01/17 00:42:10;;;;;;;30.80;19.93;;;-1.40;99.90;;;;;;5033836;28;20504;-75
2021/01/17 00:44:36;;;;;;;32.77;21.27;;;-1.50;99.90;;;;;;5060916;28;20207;-75
2021/01/17 00:47:02;;;;;;;31.73;20.60;;;-1.50;99.90;;;;;;5043372;28;20448;-75
2021/01/17 00:49:27;;;;;;;37.33;22.43;;;-1.50;99.90;;;;;;5037281;28;20216;-74
2021/01/17 00:51:53;;;;;;;26.37;18.30;;;-1.50;99.90;;;;;;5041165;28;20440;-74
2021/01/17 00:54:19;;;;;;;30.23;20.80;;;-1.50;99.90;;;;;;5044703;28;20178;-74
2021/01/17 00:56:44;;;;;;;32.10;20.23;;;-1.50;99.90;;;;;;5040705;28;20225;-74
2021/01/17 00:59:10;;;;;;;27.90;19.73;;;-1.50;99.90;;;;;;5043597;28;20215;-74
2021/01/17 01:01:41;;;;;;;29.80;19.20;;;-1.50;99.90;;;;;;5033449;28;20183;-73
2021/01/17 01:04:07;;;;;;;28.40;20.97;;;-1.60;99.90;;;;;;5042134;28;20417;-75
2021/01/17 01:06:34;;;;;;;29.10;19.63;;;-1.60;99.90;;;;;;5044399;28;20425;-75
2021/01/17 01:09:01;;;;;;;29.43;19.57;;;-1.60;99.90;;;;;;5036818;28;20449;-74
2021/01/17 01:11:27;;;;;;;25.37;18.63;;;-1.60;99.90;;;;;;5045886;28;20543;-76
2021/01/17 01:13:53;;;;;;;29.53;19.20;;;-1.60;99.90;;;;;;5040369;28;20521;-75
2021/01/17 01:16:18;;;;;;;27.00;19.17;;;-1.50;99.90;;;;;;5044315;28;20207;-74
2021/01/17 01:18:44;;;;;;;33.50;20.00;;;-1.50;99.90;;;;;;5047354;28;20205;-76
2021/01/17 01:21:11;;;;;;;29.60;18.30;;;-1.60;99.90;;;;;;5049079;28;20183;-73
2021/01/17 01:23:37;;;;;;;25.30;18.23;;;-1.50;99.90;;;;;;5047261;28;20240;-75
2021/01/17 01:26:03;;;;;;;28.97;20.70;;;-1.50;99.90;;;;;;5039074;28;20440;-75
2021/01/17 01:28:28;;;;;;;31.03;19.20;;;-1.50;99.90;;;;;;5047066;28;20514;-75
2021/01/17 01:30:55;;;;;;;31.53;18.67;;;-1.50;99.90;;;;;;5047867;28;21035;-75
2021/01/17 01:33:21;;;;;;;30.20;18.90;;;-1.50;99.90;;;;;;5046623;28;20639;-75
2021/01/17 01:35:47;;;;;;;30.87;20.33;;;-1.50;99.90;;;;;;5044269;28;20444;-75
2021/01/17 01:38:14;;;;;;;30.80;20.50;;;-1.50;99.90;;;;;;5047792;28;20519;-76
2021/01/17 01:40:40;;;;;;;31.03;20.87;;;-1.50;99.90;;;;;;5044445;28;20212;-75
2021/01/17 01:43:05;;;;;;;31.20;19.10;;;-1.50;99.90;;;;;;5047728;28;21008;-75
2021/01/17 01:45:31;;;;;;;28.23;17.83;;;-1.50;99.90;;;;;;5046897;28;20674;-75
2021/01/17 01:47:56;;;;;;;26.63;17.83;;;-1.50;99.90;;;;;;5038251;28;20191;-75
2021/01/17 01:50:22;;;;;;;28.20;19.20;;;-1.50;99.90;;;;;;5043606;28;20205;-74
2021/01/17 01:52:50;;;;;;;26.03;19.03;;;-1.50;99.90;;;;;;5048959;28;20182;-74
2021/01/17 01:55:15;;;;;;;29.67;20.47;;;-1.40;99.90;;;;;;5043477;28;20624;-75
2021/01/17 01:57:41;;;;;;;27.53;17.73;;;-1.40;99.90;;;;;;5042814;28;20444;-75
2021/01/17 02:00:08;;;;;;;28.57;17.80;;;-1.40;99.90;;;;;;5042745;28;20611;-75
2021/01/17 02:02:41;;;;;;;25.83;17.77;;;-1.30;99.90;;;;;;5047934;28;20429;-75
2021/01/17 02:05:08;;;;;;;26.27;17.30;;;-1.30;99.90;;;;;;5047388;28;20440;-76
2021/01/17 02:08:02;;;;;;;23.00;16.17;;;-1.20;99.90;;;;;;5044090;28;20436;-74
2021/01/17 02:10:28;;;;;;;25.43;15.20;;;-1.20;99.90;;;;;;5013878;28;20814;-75
2021/01/17 02:13:10;;;;;;;24.90;15.13;;;-1.10;99.90;;;;;;5047473;28;20521;-75
2021/01/17 02:15:38;;;;;;;23.97;16.43;;;-1.20;99.90;;;;;;5045415;28;20592;-75
2021/01/17 02:18:05;;;;;;;22.50;16.20;;;-1.10;99.90;;;;;;5043970;28;20452;-75
2021/01/17 02:20:32;;;;;;;26.50;17.00;;;-1.00;99.90;;;;;;5042382;28;20441;-75
2021/01/17 02:23:01;;;;;;;22.60;15.20;;;-1.00;99.90;;;;;;5044691;28;20436;-75
2021/01/17 02:25:28;;;;;;;25.13;16.03;;;-1.00;99.90;;;;;;5047074;28;20436;-75
2021/01/17 02:28:00;;;;;;;24.20;15.83;;;-1.10;99.90;;;;;;5045865;28;20957;-77
2021/01/17 02:30:28;;;;;;;24.87;16.33;;;-1.10;99.90;;;;;;5042188;28;20468;-75
2021/01/17 02:33:01;;;;;;;24.07;15.20;;;-1.00;99.90;;;;;;5048188;28;20431;-75
2021/01/17 02:35:30;;;;;;;27.50;19.47;;;-1.10;99.90;;;;;;5037665;28;20920;-75
2021/01/17 02:38:26;;;;;;;23.80;16.00;;;-1.10;99.90;;;;;;5044312;28;20507;-75
2021/01/17 02:41:13;;;;;;;23.97;16.33;;;-1.10;99.90;;;;;;5045647;28;20875;-75
2021/01/17 02:43:42;;;;;;;22.80;16.47;;;-1.20;99.90;;;;;;5042176;28;20514;-75
2021/01/17 02:46:08;;;;;;;26.47;18.73;;;-1.20;99.90;;;;;;5048957;28;20546;-75
2021/01/17 02:48:33;;;;;;;28.03;17.63;;;-1.20;99.90;;;;;;5043683;28;20627;-74
2021/01/17 02:50:59;;;;;;;30.07;19.73;;;-1.30;99.90;;;;;;5047519;28;20767;-76
2021/01/17 02:53:48;;;;;;;27.03;19.03;;;-1.30;99.90;;;;;;5043417;28;20193;-74
2021/01/17 02:56:17;;;;;;;27.77;19.00;;;-1.40;99.90;;;;;;5045817;28;20673;-76
2021/01/17 02:58:49;;;;;;;30.07;18.43;;;-1.40;99.90;;;;;;5043822;28;20505;-75
2021/01/17 03:01:20;;;;;;;24.20;18.83;;;-1.40;99.90;;;;;;5044105;28;20926;-75
2021/01/17 03:03:47;;;;;;;25.67;18.40;;;-1.40;99.90;;;;;;5043782;28;20944;-74
2021/01/17 03:06:13;;;;;;;33.23;21.37;;;-1.40;99.90;;;;;;5041265;28;20498;-73
2021/01/17 03:08:40;;;;;;;31.50;22.50;;;-1.30;99.90;;;;;;5042389;28;20502;-75
2021/01/17 03:11:06;;;;;;;34.00;21.50;;;-1.40;99.90;;;;;;5044923;28;20878;-75
2021/01/17 03:13:37;;;;;;;36.13;21.67;;;-1.40;99.90;;;;;;5047169;28;20562;-74
2021/01/17 03:16:06;;;;;;;27.20;19.73;;;-1.50;99.90;;;;;;5044785;28;20444;-74
2021/01/17 03:18:33;;;;;;;31.73;20.60;;;-1.40;99.90;;;;;;5045168;28;20460;-75
2021/01/17 03:20:59;;;;;;;31.83;19.77;;;-1.40;99.90;;;;;;5046100;28;20920;-74
2021/01/17 03:23:24;;;;;;;32.60;20.30;;;-1.40;99.90;;;;;;5033143;28;20519;-75
2021/01/17 03:25:50;;;;;;;30.37;22.13;;;-1.40;99.90;;;;;;5041524;28;20426;-74
2021/01/17 03:28:15;;;;;;;29.10;19.93;;;-1.40;99.90;;;;;;5037537;28;20203;-74
2021/01/17 03:30:41;;;;;;;32.03;22.27;;;-1.50;99.90;;;;;;5039630;28;20206;-73
2021/01/17 03:33:06;;;;;;;29.70;21.80;;;-1.40;99.90;;;;;;5044731;28;20183;-74
2021/01/17 03:35:32;;;;;;;29.80;22.07;;;-1.30;99.90;;;;;;5046546;28;20182;-74
2021/01/17 03:37:58;;;;;;;28.63;19.03;;;-1.40;99.90;;;;;;5043913;28;20687;-75
2021/01/17 03:40:25;;;;;;;34.07;21.63;;;-1.40;99.90;;;;;;5041630;28;20187;-75
2021/01/17 03:42:51;;;;;;;32.43;21.90;;;-1.40;99.90;;;;;;5044289;28;20190;-75
2021/01/17 03:45:17;;;;;;;32.13;21.07;;;-1.40;99.90;;;;;;5043558;28;20523;-75
2021/01/17 03:47:42;;;;;;;32.00;20.23;;;-1.30;99.90;;;;;;5044845;28;20653;-75
2021/01/17 03:50:08;;;;;;;28.90;20.80;;;-1.30;99.90;;;;;;5045047;28;20693;-75
2021/01/17 03:52:34;;;;;;;33.63;22.23;;;-1.30;99.90;;;;;;5044179;28;20718;-75
2021/01/17 03:55:00;;;;;;;33.30;21.50;;;-1.30;99.90;;;;;;5043569;28;20515;-75
2021/01/17 03:57:25;;;;;;;35.70;22.10;;;-1.30;99.90;;;;;;5046178;28;20639;-75
2021/01/17 03:59:51;;;;;;;34.30;20.60;;;-1.30;99.90;;;;;;5059985;28;20210;-75
2021/01/17 04:02:16;;;;;;;33.57;21.30;;;-1.40;99.90;;;;;;5040809;28;20261;-75
2021/01/17 04:04:42;;;;;;;31.33;20.20;;;-1.30;99.90;;;;;;5044587;28;20680;-75
2021/01/17 04:07:07;;;;;;;33.73;21.40;;;-1.40;99.90;;;;;;5058044;28;20189;-75
2021/01/17 04:09:33;;;;;;;38.10;22.63;;;-1.30;99.90;;;;;;5035948;28;20658;-74
2021/01/17 04:11:58;;;;;;;37.73;23.97;;;-1.40;99.90;;;;;;5042786;28;20278;-74
2021/01/17 04:14:24;;;;;;;32.37;20.77;;;-1.40;99.90;;;;;;5043564;28;20244;-75
2021/01/17 04:16:51;;;;;;;31.13;20.87;;;-1.40;99.90;;;;;;5046143;28;20186;-74
2021/01/17 04:19:17;;;;;;;36.47;21.97;;;-1.30;99.90;;;;;;5036393;28;20241;-74
2021/01/17 04:21:42;;;;;;;38.17;22.57;;;-1.30;99.90;;;;;;5037710;28;20950;-75
2021/01/17 04:24:08;;;;;;;32.50;21.80;;;-1.30;99.90;;;;;;5033079;28;20625;-74
2021/01/17 04:26:33;;;;;;;34.10;21.30;;;-1.30;99.90;;;;;;5035624;28;20296;-76
2021/01/17 04:28:59;;;;;;;33.30;23.03;;;-1.30;99.90;;;;;;5045524;28;20341;-74
2021/01/17 04:31:24;;;;;;;33.20;20.87;;;-1.30;99.90;;;;;;5036754;28;20239;-74
2021/01/17 04:33:50;;;;;;;31.33;20.73;;;-1.40;99.90;;;;;;5045309;28;20186;-76
2021/01/17 04:36:15;;;;;;;32.00;21.30;;;-1.40;99.90;;;;;;5045028;28;20273;-75
2021/01/17 04:38:41;;;;;;;32.97;22.23;;;-1.30;99.90;;;;;;5043956;28;20233;-75
2021/01/17 04:41:12;;;;;;;33.97;21.37;;;-1.30;99.90;;;;;;5032426;28;20198;-75
2021/01/17 04:43:56;;;;;;;30.83;20.13;;;-1.30;99.90;;;;;;5039352;28;20187;-75
2021/01/17 04:46:25;;;;;;;29.90;20.20;;;-1.20;99.90;;;;;;5040391;28;20437;-74
2021/01/17 04:49:00;;;;;;;40.07;23.40;;;-1.30;99.90;;;;;;5046184;28;20448;-74
2021/01/17 04:51:28;;;;;;;36.70;23.50;;;-1.20;99.90;;;;;;5045828;28;20507;-74
2021/01/17 04:53:54;;;;;;;35.33;21.50;;;-1.20;99.90;;;;;;5048377;28;20513;-75
2021/01/17 04:56:30;;;;;;;33.00;22.07;;;-1.30;99.90;;;;;;5047105;28;20528;-75
2021/01/17 04:59:13;;;;;;;27.97;19.37;;;-1.30;99.90;;;;;;5044842;28;20554;-75
2021/01/17 05:01:48;;;;;;;30.70;22.13;;;-1.30;99.90;;;;;;5044769;28;20464;-74
2021/01/17 05:04:13;;;;;;;28.67;18.30;;;-1.30;99.90;;;;;;5045627;28;20439;-74
2021/01/17 05:06:40;;;;;;;33.37;21.80;;;-1.30;99.90;;;;;;5042058;28;20471;-74
2021/01/17 05:09:06;;;;;;;29.03;19.67;;;-1.30;99.90;;;;;;5056769;28;20232;-74
2021/01/17 05:11:36;;;;;;;34.60;21.87;;;-1.20;99.90;;;;;;5048616;28;21003;-73
2021/01/17 05:14:15;;;;;;;34.03;20.57;;;-1.30;99.90;;;;;;5045856;28;20498;-74
2021/01/17 05:16:43;;;;;;;33.80;21.40;;;-1.30;99.90;;;;;;5048148;28;20845;-74
2021/01/17 05:19:26;;;;;;;33.37;21.43;;;-1.30;99.90;;;;;;5047761;28;20450;-74
2021/01/17 05:21:54;;;;;;;34.80;21.70;;;-1.20;99.90;;;;;;5039730;28;20942;-75
2021/01/17 05:24:20;;;;;;;29.90;20.00;;;-1.20;99.90;;;;;;5043269;28;20433;-74
2021/01/17 05:27:01;;;;;;;30.43;21.13;;;-1.30;99.90;;;;;;5042298;28;20956;-74
2021/01/17 05:29:29;;;;;;;28.40;20.20;;;-1.30;99.90;;;;;;5034428;28;20450;-74
2021/01/17 05:31:57;;;;;;;28.17;19.67;;;-1.20;99.90;;;;;;5046578;28;20436;-74
2021/01/17 05:34:23;;;;;;;30.90;20.50;;;-1.30;99.90;;;;;;5048866;28;20417;-76
2021/01/17 05:37:02;;;;;;;29.30;20.20;;;-1.30;99.90;;;;;;5040961;28;20478;-75
2021/01/17 05:39:28;;;;;;;30.97;21.13;;;-1.20;99.90;;;;;;5039615;28;20509;-75
2021/01/17 05:42:05;;;;;;;30.87;20.00;;;-1.20;99.90;;;;;;5048222;28;20435;-76
2021/01/17 05:44:31;;;;;;;29.77;19.97;;;-1.30;99.90;;;;;;5047289;28;21141;-75
2021/01/17 05:47:20;;;;;;;39.13;21.03;;;-1.20;99.90;;;;;;5042958;28;20528;-75
2021/01/17 05:49:46;;;;;;;30.10;22.17;;;-1.30;99.90;;;;;;5046081;28;20527;-74
2021/01/17 05:52:14;;;;;;;31.93;22.37;;;-1.30;99.90;;;;;;5045418;28;20432;-75
2021/01/17 05:54:41;;;;;;;32.80;20.70;;;-1.30;99.90;;;;;;5047561;28;20440;-75
2021/01/17 05:57:14;;;;;;;33.27;21.40;;;-1.20;99.90;;;;;;5046976;28;20428;-75
2021/01/17 05:59:41;;;;;;;38.87;22.63;;;-1.20;99.90;;;;;;5042569;28;20558;-74
2021/01/17 06:02:17;;;;;;;36.47;22.67;;;-1.30;99.90;;;;;;5041260;28;20439;-75
2021/01/17 06:04:46;;;;;;;31.37;21.33;;;-1.20;99.90;;;;;;5039731;28;20440;-74
2021/01/17 06:07:14;;;;;;;32.73;22.43;;;-1.20;99.90;;;;;;5047108;28;20874;-75
2021/01/17 06:09:42;;;;;;;37.30;23.67;;;-1.30;99.90;;;;;;5046916;28;20580;-76
2021/01/17 06:12:09;;;;;;;32.80;23.90;;;-1.30;99.90;;;;;;5044709;28;21023;-75
2021/01/17 06:14:35;;;;;;;34.30;22.30;;;-1.30;99.90;;;;;;5044294;28;20455;-74
2021/01/17 06:17:03;;;;;;;33.20;23.43;;;-1.30;99.90;;;;;;5037872;28;20513;-75
2021/01/17 06:19:37;;;;;;;36.40;24.00;;;-1.20;99.90;;;;;;5049278;28;20536;-75
2021/01/17 06:22:06;;;;;;;33.83;22.00;;;-1.30;99.90;;;;;;5046045;28;20864;-75
2021/01/17 06:24:41;;;;;;;37.03;23.80;;;-1.20;99.90;;;;;;5046730;28;20433;-75
2021/01/17 06:27:08;;;;;;;32.73;20.67;;;-1.30;99.90;;;;;;5045470;28;20430;-75
2021/01/17 06:29:41;;;;;;;40.73;23.10;;;-1.20;99.90;;;;;;5041521;28;20581;-75
2021/01/17 06:32:15;;;;;;;27.40;20.53;;;-1.20;99.90;;;;;;5047982;28;20986;-74
2021/01/17 06:34:54;;;;;;;36.80;22.33;;;-1.10;99.90;;;;;;5047464;28;20437;-75
2021/01/17 06:37:22;;;;;;;32.87;23.50;;;-1.10;99.90;;;;;;5045428;28;20432;-74
2021/01/17 06:39:53;;;;;;;36.00;24.10;;;-1.10;99.90;;;;;;5046285;28;20437;-74
2021/01/17 06:42:21;;;;;;;39.00;23.27;;;-1.10;99.90;;;;;;5055361;28;20423;-73
2021/01/17 06:44:48;;;;;;;31.37;21.70;;;-1.10;99.90;;;;;;5040393;28;20964;-76
2021/01/17 06:47:20;;;;;;;33.40;21.00;;;-1.10;99.90;;;;;;5041633;28;20433;-72
2021/01/17 06:49:46;;;;;;;32.77;22.83;;;-1.10;99.90;;;;;;5044324;28;20496;-73
2021/01/17 06:52:11;;;;;;;35.07;22.73;;;-1.10;99.90;;;;;;5046230;28;20425;-73
2021/01/17 06:54:43;;;;;;;35.17;23.13;;;-1.10;99.90;;;;;;5048138;28;20443;-74
2021/01/17 06:57:09;;;;;;;35.73;23.53;;;-1.10;99.90;;;;;;5041169;28;20551;-73
2021/01/17 06:59:39;;;;;;;34.20;23.53;;;-1.00;99.90;;;;;;5039179;28;20476;-75
2021/01/17 07:02:16;;;;;;;35.03;22.47;;;-1.20;99.90;;;;;;5039402;28;20461;-74
2021/01/17 07:05:14;;;;;;;33.37;22.10;;;-1.10;99.90;;;;;;5040457;28;20448;-75
2021/01/17 07:08:17;;;;;;;33.53;22.37;;;-1.10;99.90;;;;;;5038911;28;20748;-74
2021/01/17 07:10:44;;;;;;;36.33;21.07;;;-1.10;99.90;;;;;;5044451;28;20586;-75
2021/01/17 07:13:12;;;;;;;30.87;23.20;;;-1.10;99.90;;;;;;5044577;28;20455;-73
2021/01/17 07:15:40;;;;;;;33.37;23.60;;;-1.20;99.90;;;;;;5036842;28;20777;-74
2021/01/17 07:18:11;;;;;;;35.17;22.80;;;-1.10;99.90;;;;;;5044842;28;20480;-75
2021/01/17 07:20:37;;;;;;;35.63;23.00;;;-1.10;99.90;;;;;;5052317;28;20433;-75
2021/01/17 07:23:04;;;;;;;34.03;22.63;;;-1.10;99.90;;;;;;5044684;28;20433;-75
2021/01/17 07:25:31;;;;;;;38.33;24.43;;;-1.10;99.90;;;;;;5044446;28;20191;-76
2021/01/17 07:28:12;;;;;;;37.40;26.07;;;-1.10;99.90;;;;;;5055236;28;20474;-75
2021/01/17 07:30:59;;;;;;;34.00;23.40;;;-1.10;99.90;;;;;;5046097;28;21049;-75
2021/01/17 07:33:30;;;;;;;36.77;24.87;;;-1.00;99.90;;;;;;5037990;28;20429;-74
2021/01/17 07:36:00;;;;;;;40.27;24.07;;;-1.00;99.90;;;;;;5042861;28;20850;-75
2021/01/17 07:38:28;;;;;;;35.43;22.90;;;-1.10;99.90;;;;;;5045890;28;20445;-75
2021/01/17 07:41:05;;;;;;;37.90;23.33;;;-1.10;99.90;;;;;;5037021;28;20480;-73
2021/01/17 07:43:33;;;;;;;33.60;21.60;;;-1.00;99.90;;;;;;5046641;28;20464;-74
2021/01/17 07:46:05;;;;;;;35.20;22.73;;;-1.00;99.90;;;;;;5039914;28;20475;-74
2021/01/17 07:48:31;;;;;;;39.03;23.63;;;-1.00;99.90;;;;;;5040716;28;20453;-73
2021/01/17 07:51:02;;;;;;;39.77;25.70;;;-1.00;99.90;;;;;;5039295;28;20460;-75
2021/01/17 07:53:37;;;;;;;38.47;24.77;;;-1.00;99.90;;;;;;5043701;28;20428;-74
2021/01/17 07:56:05;;;;;;;38.43;23.90;;;-1.00;99.90;;;;;;5063808;28;20447;-73
2021/01/17 07:58:33;;;;;;;38.13;24.20;;;-1.00;99.90;;;;;;5044041;28;20479;-74
2021/01/17 08:01:00;;;;;;;33.60;24.10;;;-1.00;99.90;;;;;;5045280;28;20437;-74
2021/01/17 08:03:26;;;;;;;38.73;25.60;;;-1.00;99.90;;;;;;5041646;28;20798;-74
2021/01/17 08:05:57;;;;;;;40.73;26.53;;;-0.90;99.90;;;;;;5046431;28;21146;-74
2021/01/17 08:08:34;;;;;;;36.70;25.20;;;-0.90;99.90;;;;;;5040042;28;20441;-75
2021/01/17 08:11:01;;;;;;;33.97;23.13;;;-0.90;99.90;;;;;;5044592;28;20843;-75
2021/01/17 08:13:32;;;;;;;42.53;25.53;;;-0.90;99.90;;;;;;5046110;28;20471;-75
2021/01/17 08:16:11;;;;;;;43.43;26.10;;;-0.90;99.90;;;;;;5044906;28;20420;-73
2021/01/17 08:18:38;;;;;;;40.97;25.97;;;-0.80;99.90;;;;;;5046207;28;20531;-74
2021/01/17 08:21:22;;;;;;;44.63;25.90;;;-0.80;99.90;;;;;;5043514;28;20466;-74
2021/01/17 08:24:13;;;;;;;39.93;23.57;;;-0.80;99.90;;;;;;5046615;28;20436;-73
2021/01/17 08:27:00;;;;;;;37.30;24.67;;;-0.80;99.90;;;;;;5041010;28;20448;-74
2021/01/17 08:29:26;;;;;;;39.53;23.70;;;-0.80;99.90;;;;;;5045077;28;20444;-75
2021/01/17 08:31:52;;;;;;;39.37;26.27;;;-0.80;99.90;;;;;;5049774;28;20435;-74
2021/01/17 08:34:26;;;;;;;38.13;23.77;;;-0.80;99.90;;;;;;5048827;28;20425;-76
2021/01/17 08:36:53;;;;;;;39.87;24.40;;;-0.80;99.90;;;;;;5044128;28;20189;-75
2021/01/17 08:39:42;;;;;;;41.00;26.57;;;-0.80;99.90;;;;;;5057912;28;20516;-74
2021/01/17 08:42:33;;;;;;;40.43;25.23;;;-0.70;99.90;;;;;;5040039;28;20512;-76
2021/01/17 08:45:00;;;;;;;35.60;24.63;;;-0.60;99.90;;;;;;5048857;28;20483;-76
2021/01/17 08:47:25;;;;;;;39.10;25.17;;;-0.60;99.90;;;;;;5046571;28;20416;-73
2021/01/17 08:49:52;;;;;;;35.97;23.67;;;-0.60;99.90;;;;;;5049024;28;20480;-75
2021/01/17 08:52:28;;;;;;;36.07;25.10;;;-0.60;99.90;;;;;;5048160;28;20186;-75
2021/01/17 08:54:55;;;;;;;36.63;24.30;;;-0.50;99.90;;;;;;5049887;28;20424;-74
2021/01/17 08:57:42;;;;;;;44.57;25.73;;;-0.50;99.90;;;;;;5049933;28;20844;-74
2021/01/17 09:00:15;;;;;;;38.67;24.63;;;-0.50;99.90;;;;;;5042868;28;20606;-75
2021/01/17 09:02:41;;;;;;;40.37;25.07;;;-0.50;99.90;;;;;;5047060;28;20472;-75
2021/01/17 09:05:19;;;;;;;38.77;24.20;;;-0.50;99.90;;;;;;5046362;28;20461;-74
2021/01/17 09:07:46;;;;;;;39.00;25.07;;;-0.50;99.90;;;;;;5046050;28;20201;-74
2021/01/17 09:10:16;;;;;;;37.60;24.60;;;-0.50;99.90;;;;;;5045842;28;20483;-75
2021/01/17 09:12:42;;;;;;;38.07;24.67;;;-0.50;99.90;;;;;;5046320;28;21037;-74
2021/01/17 09:15:15;;;;;;;42.93;24.33;;;-0.50;99.90;;;;;;5039698;28;21194;-74
2021/01/17 09:17:43;;;;;;;35.97;24.00;;;-0.40;99.90;;;;;;5045249;28;20472;-75
2021/01/17 09:20:18;;;;;;;42.93;25.73;;;-0.50;99.90;;;;;;5042709;28;20448;-74
2021/01/17 09:22:45;;;;;;;36.17;24.60;;;-0.40;99.90;;;;;;5042881;28;20434;-74
2021/01/17 09:25:16;;;;;;;40.00;23.83;;;-0.30;99.90;;;;;;5043771;28;20460;-75
2021/01/17 09:27:41;;;;;;;42.40;27.20;;;-0.40;99.90;;;;;;5035263;28;20456;-74
2021/01/17 09:30:08;;;;;;;40.37;25.00;;;-0.30;99.90;;;;;;5043588;28;20565;-75
2021/01/17 09:32:35;;;;;;;38.30;24.40;;;-0.30;99.90;;;;;;5048461;28;20206;-75
2021/01/17 09:35:05;;;;;;;41.37;25.40;;;-0.30;99.90;;;;;;5046415;28;20461;-74
2021/01/17 09:37:33;;;;;;;39.90;24.90;;;-0.30;99.90;;;;;;5039322;28;20474;-74
2021/01/17 09:39:58;;;;;;;40.40;26.63;;;-0.40;99.90;;;;;;5045805;28;20543;-74
2021/01/17 09:42:26;;;;;;;40.03;24.43;;;-0.40;99.90;;;;;;5047953;28;20441;-75
2021/01/17 09:44:57;;;;;;;40.50;25.77;;;-0.30;99.90;;;;;;5047345;28;20183;-74
2021/01/17 09:47:24;;;;;;;38.33;25.13;;;-0.20;99.90;;;;;;5043688;28;20490;-73
2021/01/17 09:49:50;;;;;;;35.50;24.53;;;-0.20;99.90;;;;;;5044360;28;20472;-74
2021/01/17 09:52:21;;;;;;;40.73;25.60;;;-0.30;99.90;;;;;;5042121;28;20777;-74
2021/01/17 09:54:48;;;;;;;37.27;24.87;;;-0.20;99.90;;;;;;5045014;28;20277;-74
2021/01/17 09:57:19;;;;;;;31.30;21.33;;;-0.20;99.90;;;;;;5047277;28;20425;-75
2021/01/17 09:59:46;;;;;;;39.93;25.80;;;-0.30;99.90;;;;;;5024907;28;556563;-75
2021/01/17 10:02:11;;;;;;;33.47;24.13;;;-0.20;99.90;;;;;;5048068;28;20523;-75
2021/01/17 10:04:40;;;;;;;37.30;24.20;;;-0.20;99.90;;;;;;5043578;28;20535;-75
2021/01/17 10:07:12;;;;;;;42.37;27.20;;;-0.10;99.90;;;;;;5059512;28;20671;-75
2021/01/17 10:09:38;;;;;;;34.63;23.97;;;-0.10;99.90;;;;;;5040433;28;20835;-75
2021/01/17 10:12:04;;;;;;;37.80;24.40;;;-0.10;99.90;;;;;;5046331;28;20429;-74
2021/01/17 10:14:31;;;;;;;41.27;24.27;;;-0.10;99.90;;;;;;5046309;28;20276;-75
2021/01/17 10:16:59;;;;;;;38.03;24.23;;;-0.10;99.90;;;;;;5046429;28;20474;-76
2021/01/17 10:19:26;;;;;;;39.23;24.80;;;-0.10;99.90;;;;;;5045428;28;20445;-75
2021/01/17 10:21:52;;;;;;;42.93;24.80;;;-0.10;99.90;;;;;;5044847;28;20448;-75
2021/01/17 10:24:29;;;;;;;33.67;23.77;;;0.00;99.90;;;;;;5037841;28;20791;-75
2021/01/17 10:26:57;;;;;;;33.93;22.60;;;0.00;99.90;;;;;;5046934;28;20186;-75
2021/01/17 10:29:31;;;;;;;38.13;25.27;;;0.00;99.90;;;;;;5045523;28;21686;-75
2021/01/17 10:32:09;;;;;;;40.27;24.70;;;0.10;99.90;;;;;;5046703;28;20441;-74
2021/01/17 10:34:42;;;;;;;35.40;23.20;;;0.10;99.90;;;;;;5040341;28;20569;-74
2021/01/17 10:37:10;;;;;;;33.73;22.17;;;0.10;99.90;;;;;;5047453;28;20478;-74
2021/01/17 10:39:38;;;;;;;38.50;22.80;;;0.20;99.90;;;;;;5043122;28;20921;-74
2021/01/17 10:42:13;;;;;;;30.30;21.97;;;0.20;99.90;;;;;;5047919;28;20466;-74
2021/01/17 10:44:56;;;;;;;35.37;23.43;;;0.30;99.90;;;;;;5044499;28;20468;-74
2021/01/17 10:47:43;;;;;;;37.43;24.87;;;0.30;99.90;;;;;;5036708;28;20430;-74
2021/01/17 10:50:20;;;;;;;36.13;23.90;;;0.40;99.90;;;;;;5038183;28;20491;-75
2021/01/17 10:53:12;;;;;;;37.03;22.73;;;0.40;99.90;;;;;;5042587;28;20421;-75
2021/01/17 10:55:40;;;;;;;36.83;24.00;;;0.40;99.90;;;;;;5040308;28;20529;-73
2021/01/17 10:58:12;;;;;;;33.23;21.70;;;0.40;99.90;;;;;;5042319;28;20514;-75
2021/01/17 11:00:37;;;;;;;33.80;22.17;;;0.30;99.90;;;;;;5052882;28;20964;-75
2021/01/17 11:03:04;;;;;;;27.00;19.63;;;0.40;99.90;;;;;;5040345;28;20429;-75
2021/01/17 11:05:30;;;;;;;36.93;23.57;;;0.40;99.90;;;;;;5047191;28;20648;-75
2021/01/17 11:07:56;;;;;;;32.70;22.73;;;0.40;99.90;;;;;;5044014;28;20543;-74
2021/01/17 11:10:22;;;;;;;40.30;25.30;;;0.50;99.90;;;;;;5043312;28;20992;-76
2021/01/17 11:12:49;;;;;;;39.23;24.50;;;0.50;99.90;;;;;;5044724;28;20353;-75
2021/01/17 11:15:16;;;;;;;34.90;24.63;;;0.50;99.90;;;;;;5042701;28;20940;-75
2021/01/17 11:17:53;;;;;;;34.33;24.13;;;0.60;99.90;;;;;;5043236;28;21075;-76
2021/01/17 11:20:27;;;;;;;36.10;23.07;;;0.60;99.90;;;;;;5033926;28;20487;-75
2021/01/17 11:23:03;;;;;;;38.40;24.20;;;0.70;99.90;;;;;;5043701;28;20429;-76
2021/01/17 11:25:29;;;;;;;40.93;24.40;;;0.50;99.90;;;;;;5039547;28;20490;-75
2021/01/17 11:28:00;;;;;;;35.40;24.50;;;0.50;99.90;;;;;;5045422;28;20433;-75
2021/01/17 11:30:27;;;;;;;35.07;22.90;;;0.50;99.90;;;;;;5034365;28;20214;-75
2021/01/17 11:32:53;;;;;;;37.40;26.40;;;0.60;99.90;;;;;;5042645;28;20478;-76
2021/01/17 11:35:22;;;;;;;33.43;22.87;;;0.70;99.90;;;;;;5046823;28;20429;-75
2021/01/17 11:37:50;;;;;;;34.90;22.90;;;0.80;99.90;;;;;;5042531;28;20573;-74
2021/01/17 11:40:20;;;;;;;33.87;24.20;;;0.90;99.90;;;;;;5046041;28;20553;-74
2021/01/17 11:42:47;;;;;;;33.10;21.00;;;0.90;99.90;;;;;;5044242;28;20899;-73
2021/01/17 11:45:20;;;;;;;39.17;23.13;;;1.00;99.90;;;;;;5055651;28;20508;-73
2021/01/17 11:47:45;;;;;;;33.90;23.17;;;1.00;99.90;;;;;;5043575;28;20445;-73
2021/01/17 11:50:21;;;;;;;34.17;22.47;;;1.00;99.90;;;;;;5042700;28;21027;-74
2021/01/17 11:52:56;;;;;;;33.73;22.90;;;1.00;99.90;;;;;;5041442;28;20428;-74
2021/01/17 11:55:22;;;;;;;33.07;23.87;;;1.00;99.90;;;;;;5044082;28;20433;-74
2021/01/17 11:57:47;;;;;;;35.03;24.50;;;0.90;99.90;;;;;;5056036;28;20444;-74
2021/01/17 12:00:13;;;;;;;36.87;22.00;;;0.90;99.90;;;;;;5045108;28;20642;-74
2021/01/17 12:02:40;;;;;;;27.97;19.47;;;0.90;99.90;;;;;;5039549;28;20671;-74
2021/01/17 12:05:07;;;;;;;31.57;22.03;;;0.90;99.90;;;;;;5039054;28;20956;-75
2021/01/17 12:07:33;;;;;;;28.77;19.93;;;0.90;99.90;;;;;;5042166;28;20463;-75
2021/01/17 12:10:21;;;;;;;29.40;21.43;;;1.00;99.90;;;;;;5044594;28;20464;-75
2021/01/17 12:12:47;;;;;;;31.90;21.63;;;1.00;99.90;;;;;;5043789;28;20190;-75
2021/01/17 12:15:12;;;;;;;28.80;20.60;;;0.90;99.90;;;;;;5041134;28;20421;-75
2021/01/17 12:17:38;;;;;;;31.00;23.07;;;0.80;99.90;;;;;;5041317;28;20247;-75
2021/01/17 12:20:05;;;;;;;33.17;21.93;;;0.70;99.90;;;;;;5041864;28;20234;-74
2021/01/17 12:22:30;;;;;;;33.97;22.20;;;0.70;99.90;;;;;;5044419;28;20190;-75
2021/01/17 12:24:56;;;;;;;30.83;21.37;;;0.80;99.90;;;;;;5045806;28;20974;-76
2021/01/17 12:27:21;;;;;;;38.43;22.17;;;0.90;99.90;;;;;;5045990;28;20310;-74
2021/01/17 12:29:47;;;;;;;29.97;21.70;;;1.00;99.90;;;;;;5044577;28;20267;-74
2021/01/17 12:32:12;;;;;;;31.53;22.70;;;0.80;99.90;;;;;;5045215;28;20738;-74
2021/01/17 12:34:38;;;;;;;31.20;20.63;;;0.80;99.90;;;;;;5043925;28;20186;-75
2021/01/17 12:37:04;;;;;;;29.57;19.50;;;0.90;99.90;;;;;;5046124;28;20686;-75
2021/01/17 12:39:29;;;;;;;33.83;23.73;;;0.90;99.90;;;;;;5046031;28;20681;-76